Time;durP1;ratioP1;P1;durP2;ratioP2;P2;SDS_P1;SDS_P2;PMS_P1;PMS_P2;Temp;Humidity;BMP_temperature;BMP_pressure;BME280_temperature;BME280_humidity;BME280_pressure;Samples;Min_cycle;Max_cycle;Signal;HPM_P1;HPM_P2
2020/12/13 00:00:21;;;;;;;39.22;20.88;;;6.30;99.90;;;;;;5024605;28;20021;-69
2020/12/13 00:02:47;;;;;;;41.97;22.13;;;6.20;99.90;;;;;;5040383;28;20329;-69
2020/12/13 00:05:13;;;;;;;42.50;23.45;;;6.30;99.90;;;;;;5036001;28;20048;-70
2020/12/13 00:07:38;;;;;;;49.88;24.88;;;6.30;99.90;;;;;;5036571;28;20352;-70
2020/12/13 00:10:04;;;;;;;43.20;23.25;;;6.30;99.90;;;;;;5040235;28;20029;-70
2020/12/13 00:12:30;;;;;;;45.25;21.92;;;6.40;99.90;;;;;;5047286;28;20451;-70
2020/12/13 00:14:56;;;;;;;48.67;22.15;;;6.20;99.90;;;;;;5036766;28;20045;-71
2020/12/13 00:17:22;;;;;;;41.47;20.25;;;6.30;99.90;;;;;;5034548;28;20017;-70
2020/12/13 00:19:47;;;;;;;38.25;19.73;;;6.30;99.90;;;;;;5030857;28;20033;-69
2020/12/13 00:22:13;;;;;;;38.13;19.25;;;6.20;99.90;;;;;;5030357;28;20104;-70
2020/12/13 00:24:39;;;;;;;30.33;17.15;;;6.20;99.90;;;;;;5037112;28;20037;-69
2020/12/13 00:27:05;;;;;;;32.55;18.83;;;6.10;99.90;;;;;;5019115;28;20573;-69
2020/12/13 00:29:31;;;;;;;37.00;18.52;;;6.10;99.90;;;;;;5030926;28;20080;-69
2020/12/13 00:31:57;;;;;;;43.17;20.92;;;6.20;99.90;;;;;;5030057;28;20471;-68
2020/12/13 00:34:23;;;;;;;42.28;22.08;;;6.10;99.90;;;;;;5030614;28;20033;-69
2020/12/13 00:36:50;;;;;;;37.55;20.08;;;6.20;99.90;;;;;;5031187;28;20037;-69
2020/12/13 00:39:16;;;;;;;47.03;21.60;;;5.70;99.90;;;;;;5031788;28;20108;-69
2020/12/13 00:41:41;;;;;;;35.22;21.20;;;6.20;99.90;;;;;;5031927;28;20184;-69
2020/12/13 00:44:07;;;;;;;40.40;22.05;;;6.20;99.90;;;;;;5030129;28;20455;-70
2020/12/13 00:46:39;;;;;;;51.10;26.02;;;6.00;99.90;;;;;;5029341;28;20029;-69
2020/12/13 00:49:04;;;;;;;48.75;24.30;;;6.20;99.90;;;;;;5029420;28;20030;-68
2020/12/13 00:51:30;;;;;;;48.95;24.60;;;6.20;99.90;;;;;;5030713;28;20379;-69
2020/12/13 00:53:56;;;;;;;36.75;21.08;;;6.20;99.90;;;;;;5028721;28;20021;-69
2020/12/13 00:56:21;;;;;;;38.88;20.45;;;6.20;99.90;;;;;;5029590;28;20045;-69
2020/12/13 00:58:47;;;;;;;35.85;20.70;;;6.20;99.90;;;;;;5031223;28;20025;-69
2020/12/13 01:01:13;;;;;;;34.28;19.45;;;6.20;99.90;;;;;;5031760;28;20460;-69
2020/12/13 01:03:39;;;;;;;35.65;18.52;;;6.10;99.90;;;;;;5031848;28;20382;-68
2020/12/13 01:06:05;;;;;;;41.42;19.60;;;6.10;99.90;;;;;;5031593;28;20039;-68
2020/12/13 01:08:30;;;;;;;41.30;20.42;;;6.20;99.90;;;;;;5031855;28;20383;-68
2020/12/13 01:10:56;;;;;;;37.28;20.95;;;6.10;99.90;;;;;;5031496;28;20025;-71
2020/12/13 01:13:22;;;;;;;43.10;23.42;;;6.10;99.90;;;;;;5032005;28;20036;-68
2020/12/13 01:15:50;;;;;;;46.90;22.10;;;6.20;99.90;;;;;;5031899;28;20029;-68
2020/12/13 01:18:16;;;;;;;50.67;22.55;;;6.20;99.90;;;;;;5033595;28;20025;-68
2020/12/13 01:20:42;;;;;;;41.75;22.48;;;6.20;99.90;;;;;;5035812;28;20532;-68
2020/12/13 01:23:08;;;;;;;41.85;21.27;;;6.20;99.90;;;;;;5035889;28;20030;-67
2020/12/13 01:25:34;;;;;;;49.13;25.77;;;6.20;99.90;;;;;;5034947;28;20053;-73
2020/12/13 01:27:59;;;;;;;46.17;24.33;;;6.20;99.90;;;;;;5035994;28;20060;-69
2020/12/13 01:30:25;;;;;;;38.35;20.83;;;6.20;99.90;;;;;;5035093;28;20661;-69
2020/12/13 01:32:51;;;;;;;35.40;17.75;;;6.10;99.90;;;;;;5035308;28;20028;-68
2020/12/13 01:35:16;;;;;;;36.42;18.67;;;6.10;99.90;;;;;;5034469;28;20052;-70
2020/12/13 01:37:42;;;;;;;39.70;20.50;;;6.20;99.90;;;;;;5034158;28;20056;-69
2020/12/13 01:40:08;;;;;;;42.10;23.55;;;6.20;99.90;;;;;;5034166;28;20379;-69
2020/12/13 01:42:42;;;;;;;48.85;23.88;;;6.10;99.90;;;;;;5035180;28;20038;-69
2020/12/13 01:45:10;;;;;;;49.80;24.05;;;6.10;99.90;;;;;;5035206;28;20095;-69
2020/12/13 01:47:36;;;;;;;52.20;25.40;;;;;;;;;;5034815;28;20026;-69
2020/12/13 01:50:08;;;;;;;51.17;24.60;;;6.10;99.90;;;;;;5035503;28;20014;-69
2020/12/13 01:55:11;;;;;;;47.17;24.63;;;6.20;99.90;;;;;;5034791;28;20045;-70
2020/12/13 01:57:38;;;;;;;50.92;23.48;;;6.30;99.90;;;;;;5035409;28;20040;-71
2020/12/13 02:00:16;;;;;;;48.28;24.17;;;6.20;99.90;;;;;;5034041;28;20028;-69
2020/12/13 02:02:52;;;;;;;46.28;25.80;;;6.10;99.90;;;;;;5035051;28;20440;-70
2020/12/13 02:05:20;;;;;;;49.58;25.70;;;6.20;99.90;;;;;;5034860;28;20029;-68
2020/12/13 02:07:50;;;;;;;49.58;23.95;;;6.10;99.90;;;;;;5034561;28;20491;-68
2020/12/13 02:10:17;;;;;;;52.20;23.60;;;6.20;99.90;;;;;;5034963;28;20108;-69
2020/12/13 02:12:43;;;;;;;44.72;24.02;;;6.00;99.90;;;;;;5034692;28;20527;-69
2020/12/13 02:15:09;;;;;;;59.28;25.23;;;6.20;99.90;;;;;;5034774;28;20415;-69
2020/12/13 02:17:36;;;;;;;59.28;28.70;;;6.10;99.90;;;;;;5035490;28;20116;-69
2020/12/13 02:20:13;;;;;;;57.22;25.27;;;6.10;99.90;;;;;;5035417;28;20436;-70
2020/12/13 02:22:46;;;;;;;52.53;26.80;;;6.20;99.90;;;;;;5021998;28;20038;-69
2020/12/13 02:25:15;;;;;;;50.83;26.40;;;6.00;99.90;;;;;;5035330;28;20049;-69
2020/12/13 02:27:41;;;;;;;46.70;23.25;;;6.10;99.90;;;;;;5034246;28;20030;-68
2020/12/13 02:30:08;;;;;;;48.80;24.50;;;6.20;99.90;;;;;;5035280;28;20071;-69
2020/12/13 02:32:34;;;;;;;48.83;23.60;;;6.10;99.90;;;;;;5035205;28;20022;-69
2020/12/13 02:35:00;;;;;;;51.25;24.83;;;6.10;99.90;;;;;;5034774;28;20029;-69
2020/12/13 02:37:28;;;;;;;62.55;26.67;;;;;;;;;;5035536;28;20068;-69
2020/12/13 02:39:54;;;;;;;48.75;22.42;;;6.00;99.90;;;;;;5035702;28;20095;-68
2020/12/13 02:42:20;;;;;;;49.60;20.98;;;6.00;99.90;;;;;;5034226;28;20124;-69
2020/12/13 02:44:46;;;;;;;43.47;20.65;;;6.00;99.90;;;;;;5034973;28;20432;-69
2020/12/13 02:47:11;;;;;;;52.95;20.13;;;5.90;99.90;;;;;;5034634;28;20033;-69
2020/12/13 02:49:41;;;;;;;46.42;21.38;;;;;;;;;;5034408;28;20036;-69
2020/12/13 02:52:07;;;;;;;52.53;20.40;;;5.90;99.90;;;;;;5035204;28;20041;-69
2020/12/13 02:54:33;;;;;;;54.70;23.92;;;5.80;99.90;;;;;;5034168;28;20084;-70
2020/12/13 02:56:59;;;;;;;40.55;20.20;;;5.80;99.90;;;;;;5034594;28;20519;-69
2020/12/13 02:59:25;;;;;;;59.88;22.13;;;5.80;99.90;;;;;;5034881;28;20025;-69
2020/12/13 03:01:50;;;;;;;63.75;22.08;;;5.80;99.90;;;;;;5034485;28;20421;-69
2020/12/13 03:04:16;;;;;;;79.57;22.17;;;5.80;99.90;;;;;;5034550;28;20029;-69
2020/12/13 03:06:42;;;;;;;62.50;20.17;;;5.70;99.90;;;;;;5034170;28;20025;-69
2020/12/13 03:09:08;;;;;;;52.85;21.23;;;;;;;;;;5034554;28;20029;-69
2020/12/13 03:11:33;;;;;;;53.53;19.98;;;5.50;99.90;;;;;;5032437;28;20033;-69
2020/12/13 03:13:59;;;;;;;50.70;22.45;;;5.70;99.90;;;;;;5030939;28;20065;-70
2020/12/13 03:16:25;;;;;;;52.40;21.50;;;5.60;99.90;;;;;;5034168;28;20044;-70
2020/12/13 03:18:51;;;;;;;37.17;18.75;;;5.50;99.90;;;;;;5033012;28;20033;-70
2020/12/13 03:21:16;;;;;;;34.45;16.70;;;5.60;99.90;;;;;;5033223;28;20029;-70
2020/12/13 03:23:42;;;;;;;30.15;14.20;;;5.60;99.90;;;;;;5033810;28;20033;-70
2020/12/13 03:26:08;;;;;;;28.40;14.57;;;5.50;99.90;;;;;;5034212;28;20072;-69
2020/12/13 03:28:33;;;;;;;30.55;15.85;;;5.50;99.90;;;;;;5034377;28;20370;-69
2020/12/13 03:30:59;;;;;;;26.60;15.32;;;5.60;99.90;;;;;;5033976;28;20018;-69
2020/12/13 03:33:25;;;;;;;35.28;16.20;;;5.70;99.90;;;;;;5034135;28;20529;-69
2020/12/13 03:35:51;;;;;;;33.50;16.65;;;5.50;99.90;;;;;;5033419;28;20049;-69
2020/12/13 03:38:17;;;;;;;35.20;17.38;;;5.60;99.90;;;;;;5033742;28;20395;-70
2020/12/13 03:40:42;;;;;;;41.00;18.83;;;5.50;99.90;;;;;;5033086;28;20032;-69
2020/12/13 03:43:08;;;;;;;32.60;16.08;;;5.50;99.90;;;;;;5033671;28;20471;-69
2020/12/13 03:45:34;;;;;;;39.50;18.23;;;5.40;99.90;;;;;;5033416;28;20108;-69
2020/12/13 03:48:00;;;;;;;27.08;14.82;;;;;;;;;;5033322;28;20070;-70
2020/12/13 03:50:38;;;;;;;32.00;16.85;;;;;;;;;;5033374;28;20554;-69
2020/12/13 03:53:05;;;;;;;28.17;15.05;;;;;;;;;;5033502;28;20030;-69
2020/12/13 03:55:31;;;;;;;25.75;14.50;;;;;;;;;;5033574;28;20041;-69
2020/12/13 03:57:57;;;;;;;29.95;14.60;;;5.30;99.90;;;;;;5033277;28;20093;-69
2020/12/13 04:00:23;;;;;;;29.02;15.00;;;5.40;99.90;;;;;;5032633;28;20120;-70
2020/12/13 04:02:48;;;;;;;33.67;18.33;;;5.40;99.90;;;;;;5033574;28;20079;-69
2020/12/13 04:05:14;;;;;;;24.83;15.07;;;5.40;99.90;;;;;;5032968;28;20022;-69
2020/12/13 04:07:41;;;;;;;34.72;16.33;;;;;;;;;;5033383;28;20495;-69
2020/12/13 04:10:08;;;;;;;28.40;15.50;;;;;;;;;;5032998;28;20018;-70
2020/12/13 04:12:35;;;;;;;29.70;15.10;;;;;;;;;;5033388;28;20017;-68
2020/12/13 04:15:04;;;;;;;27.77;13.23;;;;;;;;;;5033569;28;20018;-68
2020/12/13 04:17:32;;;;;;;33.20;15.57;;;;;;;;;;5033109;28;20113;-68
2020/12/13 04:20:00;;;;;;;29.67;14.80;;;;;;;;;;5032821;28;20083;-68
2020/12/13 04:22:28;;;;;;;29.25;15.70;;;;;;;;;;5033238;28;20026;-68
2020/12/13 04:24:58;;;;;;;45.42;16.20;;;;;;;;;;5033315;28;20033;-68
2020/12/13 04:27:27;;;;;;;30.88;15.75;;;;;;;;;;5032474;28;20025;-70
2020/12/13 04:29:57;;;;;;;36.50;17.55;;;;;;;;;;5032999;28;20022;-70
2020/12/13 04:32:26;;;;;;;38.42;17.45;;;;;;;;;;5032918;28;20057;-70
2020/12/13 04:34:55;;;;;;;28.27;16.60;;;;;;;;;;5032877;28;20029;-70
2020/12/13 04:37:24;;;;;;;37.67;16.63;;;;;;;;;;5033046;28;20050;-70
2020/12/13 04:39:57;;;;;;;39.65;17.08;;;;;;;;;;5032837;28;20059;-70
2020/12/13 04:42:26;;;;;;;31.42;16.02;;;;;;;;;;5032784;28;20025;-70
2020/12/13 04:44:55;;;;;;;26.45;15.75;;;;;;;;;;5033085;28;20105;-70
2020/12/13 04:47:27;;;;;;;30.15;16.65;;;;;;;;;;5032106;28;20025;-70
2020/12/13 04:49:57;;;;;;;32.83;16.98;;;;;;;;;;5032777;28;20018;-69
2020/12/13 04:52:28;;;;;;;35.03;18.73;;;;;;;;;;5032707;28;20420;-69
2020/12/13 04:54:57;;;;;;;28.25;15.82;;;;;;;;;;5032159;28;20480;-69
2020/12/13 04:57:26;;;;;;;30.75;17.65;;;;;;;;;;5033041;28;20079;-69
2020/12/13 04:59:55;;;;;;;37.08;18.70;;;;;;;;;;5032734;28;20096;-69
2020/12/13 05:02:24;;;;;;;37.47;18.98;;;;;;;;;;5032522;28;20020;-69
2020/12/13 05:04:52;;;;;;;34.03;16.70;;;;;;;;;;5032694;28;20021;-69
2020/12/13 05:07:22;;;;;;;39.40;18.40;;;;;;;;;;5032314;28;20037;-69
2020/12/13 05:09:53;;;;;;;41.65;18.52;;;;;;;;;;5032676;28;20024;-69
2020/12/13 05:12:28;;;;;;;49.53;19.13;;;;;;;;;;5032870;28;20025;-69
2020/12/13 05:14:56;;;;;;;50.53;18.13;;;;;;;;;;5032462;28;20022;-68
2020/12/13 05:17:25;;;;;;;48.28;20.63;;;;;;;;;;5032616;28;20371;-70
2020/12/13 05:19:54;;;;;;;59.65;20.63;;;;;;;;;;5032968;28;20045;-70
2020/12/13 05:22:23;;;;;;;68.88;26.10;;;;;;;;;;5032194;28;20475;-70
2020/12/13 05:24:53;;;;;;;60.28;24.98;;;;;;;;;;5031373;28;20439;-70
2020/12/13 05:27:23;;;;;;;56.28;23.95;;;;;;;;;;5030892;28;20540;-70
2020/12/13 05:29:53;;;;;;;58.03;28.88;;;;;;;;;;5032391;28;20057;-70
2020/12/13 05:32:24;;;;;;;47.28;21.25;;;;;;;;;;5032452;28;20029;-70
2020/12/13 05:34:52;;;;;;;47.22;22.60;;;;;;;;;;5032297;28;20490;-69
2020/12/13 05:37:21;;;;;;;50.17;22.20;;;;;;;;;;5032131;28;20117;-71
2020/12/13 05:39:55;;;;;;;45.33;20.52;;;;;;;;;;5032388;28;20026;-69
2020/12/13 05:42:29;;;;;;;39.00;19.67;;;;;;;;;;5032362;28;20364;-70
2020/12/13 05:52:52;;;;;;;86.00;21.10;;;;;;;;;;5032359;28;20100;-69
2020/12/13 05:55:20;;;;;;;61.53;21.00;;;;;;;;;;5032270;28;20128;-68
2020/12/13 05:57:52;;;;;;;66.53;23.92;;;;;;;;;;5032014;28;20353;-68
2020/12/13 06:00:19;;;;;;;61.75;22.88;;;;;;;;;;5029823;28;20464;-69
2020/12/13 06:02:47;;;;;;;66.55;23.95;;;;;;;;;;5032525;28;20032;-67
2020/12/13 06:05:15;;;;;;;87.30;23.58;;;;;;;;;;5034840;28;20029;-68
2020/12/13 06:07:48;;;;;;;73.28;26.73;;;;;;;;;;5035522;28;20033;-68
2020/12/13 06:10:26;;;;;;;96.82;40.85;;;;;;;;;;5034414;28;20026;-68
2020/12/13 06:12:59;;;;;;;98.78;26.08;;;;;;;;;;5035969;28;20027;-71
2020/12/13 06:15:28;;;;;;;130.10;28.10;;;;;;;;;;5035631;28;20029;-69
2020/12/13 06:17:55;;;;;;;99.43;26.05;;;;;;;;;;5035015;28;20033;-70
2020/12/13 06:20:23;;;;;;;92.22;27.15;;;;;;;;;;5035432;28;20104;-70
2020/12/13 06:22:51;;;;;;;115.25;28.83;;;;;;;;;;5035368;28;20025;-69
2020/12/13 06:25:19;;;;;;;71.50;27.65;;;;;;;;;;5035283;28;20099;-70
2020/12/13 06:27:47;;;;;;;91.28;27.98;;;;;;;;;;5035212;28;20104;-70
2020/12/13 06:30:15;;;;;;;123.18;41.33;;;;;;;;;;5035541;28;20033;-70
2020/12/13 06:32:43;;;;;;;84.63;32.33;;;;;;;;;;5035055;28;20041;-71
2020/12/13 06:35:10;;;;;;;133.13;29.20;;;;;;;;;;5033802;28;20025;-68
2020/12/13 06:37:37;;;;;;;86.93;29.40;;;;;;;;;;5035173;28;20375;-68
2020/12/13 06:40:05;;;;;;;70.18;29.60;;;;;;;;;;5034754;28;20087;-69
2020/12/13 06:42:35;;;;;;;78.43;29.73;;;;;;;;;;5034738;28;20041;-69
2020/12/13 06:45:12;;;;;;;64.68;27.00;;;;;;;;;;5034943;28;20021;-69
2020/12/13 06:47:39;;;;;;;61.78;26.55;;;;;;;;;;5033995;28;20035;-68
2020/12/13 06:50:07;;;;;;;57.92;25.98;;;5.30;99.90;;;;;;5034912;28;20419;-69
2020/12/13 06:52:34;;;;;;;48.40;24.27;;;;;;;;;;5034800;28;20025;-69
2020/12/13 06:55:02;;;;;;;51.60;27.20;;;;;;;;;;5034879;28;20045;-69
2020/12/13 06:57:30;;;;;;;63.03;30.73;;;5.50;99.90;;;;;;5032109;28;20057;-70
2020/12/13 06:59:56;;;;;;;60.67;28.50;;;5.50;99.90;;;;;;5034297;28;20025;-69
2020/12/13 07:02:45;;;;;;;59.78;30.50;;;5.50;99.90;;;;;;5034542;28;20546;-70
2020/12/13 07:05:11;;;;;;;52.70;27.15;;;5.50;99.90;;;;;;5033917;28;20029;-70
2020/12/13 07:07:37;;;;;;;80.65;39.47;;;5.50;99.90;;;;;;5034060;28;20375;-70
2020/12/13 07:10:09;;;;;;;59.15;28.92;;;5.50;99.90;;;;;;5034373;28;20440;-70
2020/12/13 07:12:37;;;;;;;48.33;26.83;;;5.50;99.90;;;;;;5034590;28;20021;-69
2020/12/13 07:15:20;;;;;;;52.40;25.15;;;5.60;99.90;;;;;;5033100;28;20443;-70
2020/12/13 07:17:47;;;;;;;51.70;24.10;;;5.50;99.90;;;;;;5034526;28;20029;-70
2020/12/13 07:20:13;;;;;;;67.55;28.85;;;5.50;99.90;;;;;;5050626;28;20025;-68
2020/12/13 07:22:39;;;;;;;58.15;27.73;;;5.50;99.90;;;;;;5051298;28;20021;-69
2020/12/13 07:25:05;;;;;;;50.63;25.60;;;5.60;99.90;;;;;;5049992;28;20032;-69
2020/12/13 07:27:32;;;;;;;65.95;30.92;;;5.60;99.90;;;;;;5047890;28;20388;-71
2020/12/13 07:29:57;;;;;;;74.00;35.90;;;5.60;99.90;;;;;;5050791;28;20037;-70
2020/12/13 07:32:23;;;;;;;63.67;30.38;;;5.50;99.90;;;;;;5049870;28;20071;-70
2020/12/13 07:34:49;;;;;;;48.90;25.58;;;5.60;99.90;;;;;;5049594;28;20036;-70
2020/12/13 07:37:17;;;;;;;40.17;20.77;;;5.60;99.90;;;;;;5050993;28;20056;-69
2020/12/13 07:39:43;;;;;;;52.58;24.67;;;5.60;99.90;;;;;;5047233;28;20025;-69
2020/12/13 07:42:12;;;;;;;49.45;26.95;;;5.60;99.90;;;;;;5041288;28;20056;-69
2020/12/13 07:44:38;;;;;;;51.38;26.63;;;5.60;99.90;;;;;;5046085;28;20029;-69
2020/12/13 07:47:04;;;;;;;57.78;29.02;;;5.60;99.90;;;;;;5033414;28;20439;-69
2020/12/13 07:49:29;;;;;;;48.75;27.00;;;5.60;99.90;;;;;;5032933;28;20041;-69
2020/12/13 07:51:58;;;;;;;57.42;31.23;;;5.60;99.90;;;;;;5033902;28;20064;-69
2020/12/13 07:54:26;;;;;;;56.70;32.75;;;5.70;99.90;;;;;;5032610;28;20025;-69
2020/12/13 07:56:53;;;;;;;57.80;31.30;;;5.60;99.90;;;;;;5033707;28;20463;-69
2020/12/13 07:59:24;;;;;;;64.70;35.80;;;5.60;99.90;;;;;;5047380;28;20029;-70
2020/12/13 08:01:52;;;;;;;64.53;33.30;;;5.60;99.90;;;;;;5049450;28;20425;-69
2020/12/13 08:04:32;;;;;;;68.30;39.28;;;5.60;99.90;;;;;;5048228;28;20371;-70
2020/12/13 08:07:10;;;;;;;57.33;32.60;;;5.60;99.90;;;;;;5044514;28;20029;-76
2020/12/13 08:09:42;;;;;;;71.60;38.40;;;5.60;99.90;;;;;;5036351;28;20079;-70
2020/12/13 08:12:08;;;;;;;71.47;34.65;;;5.70;99.90;;;;;;5045037;28;20018;-70
2020/12/13 08:14:34;;;;;;;71.57;29.98;;;5.70;99.90;;;;;;5041460;28;20512;-71
2020/12/13 08:17:00;;;;;;;67.43;33.30;;;5.70;99.90;;;;;;5044549;28;20096;-69
2020/12/13 08:19:41;;;;;;;74.72;35.22;;;5.60;99.90;;;;;;5041539;28;20068;-71
2020/12/13 08:22:25;;;;;;;76.93;37.50;;;5.60;99.90;;;;;;5046945;28;20412;-69
2020/12/13 08:25:13;;;;;;;65.65;33.45;;;5.60;99.90;;;;;;5039160;28;20083;-69
2020/12/13 08:27:41;;;;;;;63.67;33.78;;;5.60;99.90;;;;;;5032353;28;20029;-70
2020/12/13 08:30:08;;;;;;;58.72;30.88;;;5.60;99.90;;;;;;5033308;28;20029;-70
2020/12/13 08:32:36;;;;;;;66.32;30.50;;;5.60;99.90;;;;;;5032735;28;20529;-68
2020/12/13 08:35:09;;;;;;;61.65;28.95;;;5.50;99.90;;;;;;5033173;28;20025;-72
2020/12/13 08:37:35;;;;;;;61.88;28.50;;;5.50;99.90;;;;;;5032530;28;20028;-70
2020/12/13 08:40:02;;;;;;;59.40;32.45;;;5.50;99.90;;;;;;5033232;28;20029;-71
2020/12/13 08:42:28;;;;;;;62.88;31.50;;;5.50;99.90;;;;;;5029935;28;20108;-70
2020/12/13 08:44:53;;;;;;;73.25;32.20;;;5.60;99.90;;;;;;5032617;28;20120;-70
2020/12/13 08:47:28;;;;;;;71.07;36.10;;;5.60;99.90;;;;;;5032108;28;20033;-71
2020/12/13 08:49:54;;;;;;;92.88;39.30;;;5.60;99.90;;;;;;5027437;28;20111;-70
2020/12/13 08:52:22;;;;;;;62.13;29.77;;;5.40;99.90;;;;;;5038820;28;20128;-71
2020/12/13 08:54:53;;;;;;;57.72;30.00;;;5.50;99.90;;;;;;5030156;28;20021;-71
2020/12/13 08:57:35;;;;;;;72.07;32.92;;;5.40;99.90;;;;;;5029621;28;20029;-70
2020/12/13 09:00:04;;;;;;;62.75;31.55;;;5.40;99.90;;;;;;5030617;28;20041;-70
2020/12/13 09:02:30;;;;;;;60.25;29.58;;;5.30;99.90;;;;;;5031066;28;20079;-70
2020/12/13 09:04:56;;;;;;;62.70;30.88;;;5.40;99.90;;;;;;5031441;28;20038;-71
2020/12/13 09:07:22;;;;;;;56.33;28.98;;;5.30;99.90;;;;;;5032072;28;20033;-70
2020/12/13 09:09:48;;;;;;;92.47;42.17;;;5.30;99.90;;;;;;5030506;28;20175;-68
2020/12/13 09:12:28;;;;;;;64.05;30.92;;;5.40;99.90;;;;;;5030159;28;20025;-70
2020/12/13 09:14:54;;;;;;;61.20;32.08;;;5.40;99.90;;;;;;5031014;28;20043;-71
2020/12/13 09:17:24;;;;;;;72.80;34.40;;;5.40;99.90;;;;;;5042084;28;20170;-71
2020/12/13 09:19:51;;;;;;;80.50;38.78;;;5.50;99.90;;;;;;5040189;28;20124;-70
2020/12/13 09:22:21;;;;;;;68.93;34.28;;;5.30;99.90;;;;;;5034324;28;20384;-72
2020/12/13 09:24:48;;;;;;;54.88;29.77;;;5.40;99.90;;;;;;5049759;28;20025;-69
2020/12/13 09:27:19;;;;;;;73.65;37.35;;;5.40;99.90;;;;;;5042505;28;20406;-71
2020/12/13 09:29:47;;;;;;;72.63;32.05;;;5.40;99.90;;;;;;5037752;28;20394;-70
2020/12/13 09:32:14;;;;;;;57.78;27.92;;;5.40;99.90;;;;;;5049182;28;20061;-70
2020/12/13 09:34:40;;;;;;;53.17;25.88;;;5.40;99.90;;;;;;5048612;28;20100;-69
2020/12/13 09:37:16;;;;;;;67.15;28.27;;;5.30;99.90;;;;;;5050211;28;20017;-69
2020/12/13 09:39:43;;;;;;;73.30;37.30;;;5.40;99.90;;;;;;5046306;28;20055;-69
2020/12/13 09:42:09;;;;;;;73.63;38.15;;;5.30;99.90;;;;;;5050914;28;20029;-68
2020/12/13 09:44:35;;;;;;;65.70;36.65;;;5.40;99.90;;;;;;5049732;28;20027;-69
2020/12/13 09:47:01;;;;;;;58.60;29.92;;;5.40;99.90;;;;;;5053467;28;20025;-71
2020/12/13 09:49:28;;;;;;;63.05;31.67;;;5.40;99.90;;;;;;5050940;28;20017;-70
2020/12/13 09:52:02;;;;;;;61.45;32.45;;;5.40;99.90;;;;;;5052175;28;20043;-69
2020/12/13 09:54:28;;;;;;;57.65;30.90;;;5.50;99.90;;;;;;5048054;28;20022;-72
2020/12/13 09:56:54;;;;;;;55.10;31.00;;;5.40;99.90;;;;;;5036467;28;20049;-73
2020/12/13 09:59:21;;;;;;;54.60;29.73;;;5.40;99.90;;;;;;5035692;28;20037;-72
2020/12/13 10:01:47;;;;;;;60.05;32.65;;;5.40;99.90;;;;;;5035622;28;20049;-70
2020/12/13 10:04:13;;;;;;;64.70;36.83;;;5.40;99.90;;;;;;5035163;28;20052;-71
2020/12/13 10:09:09;;;;;;;72.22;40.42;;;5.50;99.90;;;;;;5035356;28;20033;-73
2020/12/13 10:11:40;;;;;;;75.35;39.75;;;5.40;99.90;;;;;;5035572;28;20068;-72
2020/12/13 10:14:08;;;;;;;70.30;35.63;;;5.40;99.90;;;;;;5035423;28;20029;-70
2020/12/13 10:16:34;;;;;;;57.88;31.02;;;5.30;99.90;;;;;;5035062;28;20022;-70
2020/12/13 10:19:01;;;;;;;44.17;24.17;;;5.30;99.90;;;;;;5034708;28;20037;-69
2020/12/13 10:21:29;;;;;;;53.45;28.63;;;5.40;99.90;;;;;;5029060;28;20029;-70
2020/12/13 10:23:55;;;;;;;48.67;27.90;;;5.30;99.90;;;;;;5034467;28;20050;-71
2020/12/13 10:26:25;;;;;;;46.30;27.73;;;5.40;99.90;;;;;;5044980;28;20029;-74
2020/12/13 10:28:52;;;;;;;46.80;29.15;;;5.40;99.90;;;;;;5048727;28;20059;-70
2020/12/13 10:31:19;;;;;;;73.70;37.85;;;5.40;99.90;;;;;;5048951;28;20025;-73
2020/12/13 10:33:45;;;;;;;70.50;40.60;;;5.60;99.90;;;;;;5046769;28;20029;-72
2020/12/13 10:36:13;;;;;;;73.82;41.50;;;5.70;99.90;;;;;;5047028;28;20060;-72
2020/12/13 10:38:40;;;;;;;65.13;35.35;;;5.70;99.90;;;;;;5052792;28;20056;-73
2020/12/13 10:41:09;;;;;;;63.30;34.85;;;5.60;99.90;;;;;;5047758;28;20022;-72
2020/12/13 10:43:36;;;;;;;60.58;34.08;;;5.70;99.90;;;;;;5050410;28;20052;-70
2020/12/13 10:46:04;;;;;;;50.33;29.27;;;5.60;99.90;;;;;;5045193;28;20029;-69
2020/12/13 10:48:30;;;;;;;46.63;27.67;;;5.60;99.90;;;;;;5050648;28;20443;-68
2020/12/13 10:50:56;;;;;;;51.88;28.33;;;5.50;99.90;;;;;;5046336;28;20063;-66
2020/12/13 10:53:21;;;;;;;49.55;25.20;;;5.60;99.90;;;;;;5044834;28;20026;-66
2020/12/13 10:55:47;;;;;;;46.47;27.90;;;5.60;99.90;;;;;;5052067;28;20052;-68
2020/12/13 10:58:13;;;;;;;49.08;28.05;;;5.60;99.90;;;;;;5050540;28;20044;-72
2020/12/13 11:00:38;;;;;;;47.25;26.10;;;5.60;99.90;;;;;;5050234;28;20090;-69
2020/12/13 11:03:04;;;;;;;66.13;33.58;;;5.60;99.90;;;;;;5049097;28;20519;-70
2020/12/13 11:05:30;;;;;;;80.32;44.15;;;5.60;99.90;;;;;;5050548;28;20029;-67
2020/12/13 11:07:56;;;;;;;60.85;32.08;;;5.60;99.90;;;;;;5046771;28;20036;-69
2020/12/13 11:10:21;;;;;;;52.72;29.52;;;5.60;99.90;;;;;;5042059;28;20018;-70
2020/12/13 11:12:47;;;;;;;52.90;27.48;;;5.60;99.90;;;;;;5051005;28;20414;-68
2020/12/13 11:15:13;;;;;;;67.90;35.83;;;5.60;99.90;;;;;;5049451;28;20021;-68
2020/12/13 11:17:38;;;;;;;66.70;36.75;;;5.60;99.90;;;;;;5050198;28;20483;-70
2020/12/13 11:20:04;;;;;;;58.45;32.38;;;5.60;99.90;;;;;;5044511;28;20036;-68
2020/12/13 11:22:30;;;;;;;56.55;30.02;;;5.50;99.90;;;;;;5042345;28;20091;-70
2020/12/13 11:24:56;;;;;;;60.53;30.90;;;5.60;99.90;;;;;;5044481;28;20022;-71
2020/12/13 11:27:22;;;;;;;50.75;27.30;;;5.70;99.90;;;;;;5045342;28;20025;-74
2020/12/13 11:29:47;;;;;;;52.03;27.27;;;5.70;99.90;;;;;;5044581;28;20422;-75
2020/12/13 11:32:13;;;;;;;47.22;24.83;;;5.70;99.90;;;;;;5047300;28;20467;-69
2020/12/13 11:34:39;;;;;;;56.78;29.20;;;5.70;99.90;;;;;;5048272;28;20447;-70
2020/12/13 11:37:06;;;;;;;51.70;25.33;;;5.80;99.90;;;;;;5047801;28;21734;-71
2020/12/13 11:39:32;;;;;;;58.38;29.55;;;5.80;99.90;;;;;;5040012;28;20060;-69
2020/12/13 11:41:59;;;;;;;71.13;34.47;;;5.80;99.90;;;;;;5050650;28;20855;-69
2020/12/13 11:44:25;;;;;;;62.83;30.90;;;5.90;99.90;;;;;;5049430;28;20037;-72
2020/12/13 11:46:51;;;;;;;62.17;35.38;;;5.90;99.90;;;;;;5047725;28;20485;-68
2020/12/13 11:49:17;;;;;;;65.22;29.88;;;5.90;99.90;;;;;;5045776;28;20028;-70
2020/12/13 11:51:43;;;;;;;62.35;33.08;;;5.90;99.90;;;;;;5039617;28;20026;-70
2020/12/13 11:54:10;;;;;;;48.38;27.10;;;5.90;99.90;;;;;;5044132;28;20031;-72
2020/12/13 11:56:36;;;;;;;55.35;30.58;;;5.80;99.90;;;;;;5048491;28;20128;-68
2020/12/13 11:59:02;;;;;;;60.10;29.20;;;5.80;99.90;;;;;;5049031;28;20104;-72
2020/12/13 12:01:27;;;;;;;66.25;30.20;;;5.80;99.90;;;;;;5045829;28;20032;-74
2020/12/13 12:03:53;;;;;;;57.05;31.63;;;5.80;99.90;;;;;;5050135;28;20033;-72
2020/12/13 12:06:19;;;;;;;69.88;37.33;;;5.90;99.90;;;;;;5045985;28;20028;-70
2020/12/13 12:08:45;;;;;;;69.63;36.80;;;5.90;99.90;;;;;;5043893;28;20056;-72
2020/12/13 12:11:19;;;;;;;74.85;36.33;;;5.90;99.90;;;;;;5043003;28;20032;-75
2020/12/13 12:13:49;;;;;;;65.95;37.60;;;6.00;99.90;;;;;;5047400;28;20122;-74
2020/12/13 12:16:15;;;;;;;77.55;41.47;;;6.00;99.90;;;;;;5046632;28;20072;-68
2020/12/13 12:18:41;;;;;;;87.15;40.65;;;6.00;99.90;;;;;;5045606;28;20120;-69
2020/12/13 12:21:15;;;;;;;74.82;36.10;;;6.00;99.90;;;;;;5048713;28;20040;-68
2020/12/13 12:23:41;;;;;;;77.85;36.85;;;5.80;99.90;;;;;;5048188;28;20056;-68
2020/12/13 12:26:07;;;;;;;70.80;35.58;;;5.80;99.90;;;;;;5049389;28;20061;-69
2020/12/13 12:28:33;;;;;;;69.38;35.00;;;5.70;99.90;;;;;;5046349;28;20035;-70
2020/12/13 12:30:58;;;;;;;72.13;35.35;;;5.70;99.90;;;;;;5048733;28;20379;-70
2020/12/13 12:33:24;;;;;;;69.10;35.55;;;5.70;99.90;;;;;;5032813;28;20125;-71
2020/12/13 12:35:50;;;;;;;77.40;36.38;;;5.70;99.90;;;;;;5033784;28;20056;-70
2020/12/13 12:38:16;;;;;;;73.50;38.80;;;5.70;99.90;;;;;;5036804;28;20527;-73
2020/12/13 12:40:41;;;;;;;76.53;34.38;;;5.80;99.90;;;;;;5037356;28;20026;-70
2020/12/13 12:43:07;;;;;;;95.10;44.85;;;5.80;99.90;;;;;;5038363;28;20033;-72
2020/12/13 12:45:33;;;;;;;78.60;42.50;;;5.80;99.90;;;;;;5049414;28;20025;-70
2020/12/13 12:47:59;;;;;;;89.60;44.83;;;5.80;99.90;;;;;;5031473;28;20029;-70
2020/12/13 12:50:24;;;;;;;78.55;43.90;;;5.70;99.90;;;;;;5028841;28;20064;-72
2020/12/13 12:52:50;;;;;;;91.88;44.08;;;5.70;99.90;;;;;;5031960;28;20032;-71
2020/12/13 12:55:16;;;;;;;88.32;46.80;;;5.70;99.90;;;;;;5031212;28;20077;-71
2020/12/13 12:57:42;;;;;;;85.95;43.03;;;5.60;99.90;;;;;;5032065;28;20041;-75
2020/12/13 13:02:56;;;;;;;90.80;45.70;;;5.50;99.90;;;;;;5031400;28;20530;-69
2020/12/13 13:08:11;;;;;;;95.43;46.08;;;5.60;99.90;;;;;;5032019;28;20495;-69
2020/12/13 13:10:37;;;;;;;91.93;45.13;;;5.50;99.90;;;;;;5031123;28;20021;-76
2020/12/13 13:13:03;;;;;;;120.53;59.42;;;5.60;99.90;;;;;;5033486;28;20144;-71
2020/12/13 13:16:02;;;;;;;118.63;53.97;;;5.50;99.90;;;;;;5035982;28;20605;-70
2020/12/13 13:18:23;;;;;;;123.72;60.63;;;5.50;99.90;;;;;;5036491;28;20425;-72